sensor_id;sensor_type;location;lat;lon;timestamp;pressure;altitude;pressure_sealevel;temperature;humidity
7297;BME280;40758;54.038;11.684;2022-09-09T00:01:32;100719.19;;;13.47;100.00
7297;BME280;40758;54.038;11.684;2022-09-09T00:04:14;100725.16;;;13.41;100.00
7297;BME280;40758;54.038;11.684;2022-09-09T00:06:53;100719.75;;;13.41;100.00
7297;BME280;40758;54.038;11.684;2022-09-09T00:09:29;100721.63;;;13.40;100.00
7297;BME280;40758;54.038;11.684;2022-09-09T00:12:08;100717.78;;;13.43;100.00
7297;BME280;40758;54.038;11.684;2022-09-09T00:14:48;100722.31;;;13.42;100.00
7297;BME280;40758;54.038;11.684;2022-09-09T00:17:32;100721.47;;;13.42;100.00
7297;BME280;40758;54.038;11.684;2022-09-09T00:20:16;100719.34;;;13.45;100.00
7297;BME280;40758;54.038;11.684;2022-09-09T00:22:56;100718.50;;;13.45;100.00
7297;BME280;40758;54.038;11.684;2022-09-09T00:25:33;100713.97;;;13.45;100.00
7297;BME280;40758;54.038;11.684;2022-09-09T00:28:17;100719.50;;;13.44;100.00
7297;BME280;40758;54.038;11.684;2022-09-09T00:30:47;100716.78;;;13.44;100.00
7297;BME280;40758;54.038;11.684;2022-09-09T00:33:20;100710.41;;;13.45;100.00
7297;BME280;40758;54.038;11.684;2022-09-09T00:35:56;100703.00;;;13.47;100.00
7297;BME280;40758;54.038;11.684;2022-09-09T00:38:33;100711.50;;;13.52;100.00
7297;BME280;40758;54.038;11.684;2022-09-09T00:41:13;100704.69;;;13.48;100.00
7297;BME280;40758;54.038;11.684;2022-09-09T00:43:56;100698.31;;;13.49;100.00
7297;BME280;40758;54.038;11.684;2022-09-09T00:47:08;100705.09;;;13.53;100.00
7297;BME280;40758;54.038;11.684;2022-09-09T00:49:54;100704.56;;;13.49;100.00
7297;BME280;40758;54.038;11.684;2022-09-09T00:52:42;100705.28;;;13.51;100.00
7297;BME280;40758;54.038;11.684;2022-09-09T00:55:20;100704.41;;;13.51;100.00
7297;BME280;40758;54.038;11.684;2022-09-09T00:57:56;100699.03;;;13.51;100.00
7297;BME280;40758;54.038;11.684;2022-09-09T01:00:27;100700.00;;;13.50;100.00
7297;BME280;40758;54.038;11.684;2022-09-09T01:05:22;100697.59;;;13.47;100.00
7297;BME280;40758;54.038;11.684;2022-09-09T01:07:54;100703.72;;;13.49;100.00
7297;BME280;40758;54.038;11.684;2022-09-09T01:10:36;100712.78;;;13.48;100.00
7297;BME280;40758;54.038;11.684;2022-09-09T01:13:19;100706.09;;;13.52;100.00
7297;BME280;40758;54.038;11.684;2022-09-09T01:15:51;100706.09;;;13.52;100.00
7297;BME280;40758;54.038;11.684;2022-09-09T01:18:33;100704.09;;;13.54;100.00
7297;BME280;40758;54.038;11.684;2022-09-09T01:21:22;100697.41;;;13.58;100.00
7297;BME280;40758;54.038;11.684;2022-09-09T01:24:22;100702.25;;;13.54;100.00
7297;BME280;40758;54.038;11.684;2022-09-09T01:26:56;100696.47;;;13.49;100.00
7297;BME280;40758;54.038;11.684;2022-09-09T01:29:27;100696.59;;;13.48;100.00
7297;BME280;40758;54.038;11.684;2022-09-09T01:31:58;100701.28;;;13.46;100.00
7297;BME280;40758;54.038;11.684;2022-09-09T01:34:33;100698.44;;;13.47;100.00
7297;BME280;40758;54.038;11.684;2022-09-09T01:37:06;100702.72;;;13.50;100.00
7297;BME280;40758;54.038;11.684;2022-09-09T01:39:37;100707.53;;;13.56;100.00
7297;BME280;40758;54.038;11.684;2022-09-09T01:42:12;100704.97;;;13.54;100.00
7297;BME280;40758;54.038;11.684;2022-09-09T01:44:42;100696.72;;;13.56;100.00
7297;BME280;40758;54.038;11.684;2022-09-09T01:47:12;100690.75;;;13.52;100.00
7297;BME280;40758;54.038;11.684;2022-09-09T01:49:41;100705.81;;;13.55;100.00
7297;BME280;40758;54.038;11.684;2022-09-09T01:52:12;100700.00;;;13.50;100.00
7297;BME280;40758;54.038;11.684;2022-09-09T01:54:41;100702.72;;;13.50;100.00
7297;BME280;40758;54.038;11.684;2022-09-09T01:57:19;100711.81;;;13.49;100.00
7297;BME280;40758;54.038;11.684;2022-09-09T02:00:05;100707.41;;;13.48;100.00
7297;BME280;40758;54.038;11.684;2022-09-09T02:02:43;100710.09;;;13.48;100.00
7297;BME280;40758;54.038;11.684;2022-09-09T02:05:25;100718.91;;;13.50;100.00
7297;BME280;40758;54.038;11.684;2022-09-09T02:08:05;100721.47;;;13.51;100.00
7297;BME280;40758;54.038;11.684;2022-09-09T02:10:45;100721.88;;;13.47;100.00
7297;BME280;40758;54.038;11.684;2022-09-09T02:13:21;100732.53;;;13.48;100.00
7297;BME280;40758;54.038;11.684;2022-09-09T02:15:56;100729.69;;;13.50;100.00
7297;BME280;40758;54.038;11.684;2022-09-09T02:18:32;100731.09;;;13.54;100.00
7297;BME280;40758;54.038;11.684;2022-09-09T02:21:05;100729.13;;;13.56;100.00
7297;BME280;40758;54.038;11.684;2022-09-09T02:23:36;100727.41;;;13.55;100.00
7297;BME280;40758;54.038;11.684;2022-09-09T02:26:08;100730.25;;;13.53;100.00
7297;BME280;40758;54.038;11.684;2022-09-09T02:28:42;100732.66;;;13.56;100.00
7297;BME280;40758;54.038;11.684;2022-09-09T02:31:11;100727.28;;;13.56;100.00
7297;BME280;40758;54.038;11.684;2022-09-09T02:33:46;100720.31;;;13.54;100.00
7297;BME280;40758;54.038;11.684;2022-09-09T02:36:17;100720.63;;;13.51;100.00
7297;BME280;40758;54.038;11.684;2022-09-09T02:38:48;100714.94;;;13.44;100.00
7297;BME280;40758;54.038;11.684;2022-09-09T02:41:24;100716.06;;;13.42;100.00
7297;BME280;40758;54.038;11.684;2022-09-09T02:43:56;100723.47;;;13.40;100.00
7297;BME280;40758;54.038;11.684;2022-09-09T02:46:45;100728.03;;;13.39;100.00
7297;BME280;40758;54.038;11.684;2022-09-09T02:49:28;100734.97;;;13.42;100.00
7297;BME280;40758;54.038;11.684;2022-09-09T02:52:07;100731.69;;;13.48;100.00
7297;BME280;40758;54.038;11.684;2022-09-09T02:54:42;100735.38;;;13.47;100.00
7297;BME280;40758;54.038;11.684;2022-09-09T02:57:19;100729.97;;;13.47;100.00
7297;BME280;40758;54.038;11.684;2022-09-09T02:59:51;100729.28;;;13.45;100.00
7297;BME280;40758;54.038;11.684;2022-09-09T03:05:16;100730.88;;;13.38;100.00
7297;BME280;40758;54.038;11.684;2022-09-09T03:07:44;100735.84;;;13.32;100.00
7297;BME280;40758;54.038;11.684;2022-09-09T03:10:13;100732.56;;;13.29;100.00
7297;BME280;40758;54.038;11.684;2022-09-09T03:12:43;100728.34;;;13.26;100.00
7297;BME280;40758;54.038;11.684;2022-09-09T03:15:12;100736.00;;;13.31;100.00
7297;BME280;40758;54.038;11.684;2022-09-09T03:17:42;100736.72;;;13.33;100.00
7297;BME280;40758;54.038;11.684;2022-09-09T03:20:11;100727.75;;;13.32;100.00
7297;BME280;40758;54.038;11.684;2022-09-09T03:22:41;100740.38;;;13.42;100.00
7297;BME280;40758;54.038;11.684;2022-09-09T03:25:12;100748.88;;;13.47;100.00
7297;BME280;40758;54.038;11.684;2022-09-09T03:27:41;100743.34;;;13.48;100.00
7297;BME280;40758;54.038;11.684;2022-09-09T03:30:11;100742.94;;;13.43;100.00
7297;BME280;40758;54.038;11.684;2022-09-09T03:32:41;100741.34;;;13.41;100.00
7297;BME280;40758;54.038;11.684;2022-09-09T03:35:16;100748.59;;;13.40;100.00
7297;BME280;40758;54.038;11.684;2022-09-09T03:37:46;100745.22;;;13.38;100.00
7297;BME280;40758;54.038;11.684;2022-09-09T03:40:15;100752.16;;;13.41;100.00
7297;BME280;40758;54.038;11.684;2022-09-09T03:42:46;100753.28;;;13.48;100.00
7297;BME280;40758;54.038;11.684;2022-09-09T03:45:15;100749.59;;;13.49;100.00
7297;BME280;40758;54.038;11.684;2022-09-09T03:47:44;100753.28;;;13.48;100.00
7297;BME280;40758;54.038;11.684;2022-09-09T03:50:13;100757.25;;;13.53;100.00
7297;BME280;40758;54.038;11.684;2022-09-09T03:52:42;100759.34;;;13.59;100.00
7297;BME280;40758;54.038;11.684;2022-09-09T03:55:13;100760.34;;;13.58;100.00
7297;BME280;40758;54.038;11.684;2022-09-09T03:57:41;100757.81;;;13.57;100.00
7297;BME280;40758;54.038;11.684;2022-09-09T04:00:13;100755.81;;;13.59;100.00
7297;BME280;40758;54.038;11.684;2022-09-09T04:02:42;100761.91;;;13.61;100.00
7297;BME280;40758;54.038;11.684;2022-09-09T04:05:12;100754.81;;;13.60;100.00
7297;BME280;40758;54.038;11.684;2022-09-09T04:07:42;100760.94;;;13.62;100.00
7297;BME280;40758;54.038;11.684;2022-09-09T04:10:13;100759.47;;;13.67;100.00
7297;BME280;40758;54.038;11.684;2022-09-09T04:12:42;100764.75;;;13.69;100.00
7297;BME280;40758;54.038;11.684;2022-09-09T04:15:15;100756.91;;;13.66;100.00
7297;BME280;40758;54.038;11.684;2022-09-09T04:17:45;100746.25;;;13.64;100.00
7297;BME280;40758;54.038;11.684;2022-09-09T04:20:17;100755.94;;;13.67;100.00
7297;BME280;40758;54.038;11.684;2022-09-09T04:22:47;100757.31;;;13.71;100.00
7297;BME280;40758;54.038;11.684;2022-09-09T04:25:18;100759.19;;;13.70;100.00
7297;BME280;40758;54.038;11.684;2022-09-09T04:27:47;100759.75;;;13.74;100.00
7297;BME280;40758;54.038;11.684;2022-09-09T04:30:16;100767.72;;;13.75;100.00
7297;BME280;40758;54.038;11.684;2022-09-09T04:32:47;100761.47;;;13.75;100.00
7297;BME280;40758;54.038;11.684;2022-09-09T04:35:18;100763.00;;;13.77;100.00
7297;BME280;40758;54.038;11.684;2022-09-09T04:37:48;100771.09;;;13.77;100.00
7297;BME280;40758;54.038;11.684;2022-09-09T04:40:18;100779.06;;;13.79;100.00
7297;BME280;40758;54.038;11.684;2022-09-09T04:42:49;100784.47;;;13.79;100.00
7297;BME280;40758;54.038;11.684;2022-09-09T04:45:18;100769.38;;;13.76;100.00
7297;BME280;40758;54.038;11.684;2022-09-09T04:47:48;100782.75;;;13.78;100.00
7297;BME280;40758;54.038;11.684;2022-09-09T04:50:17;100779.47;;;13.84;100.00
7297;BME280;40758;54.038;11.684;2022-09-09T04:52:46;100782.72;;;13.88;100.00
7297;BME280;40758;54.038;11.684;2022-09-09T04:55:15;100786.13;;;13.90;100.00
7297;BME280;40758;54.038;11.684;2022-09-09T04:57:46;100792.69;;;13.87;100.00
7297;BME280;40758;54.038;11.684;2022-09-09T05:00:16;100789.66;;;13.90;100.00
7297;BME280;40758;54.038;11.684;2022-09-09T05:05:15;100791.97;;;13.95;100.00
7297;BME280;40758;54.038;11.684;2022-09-09T05:07:45;100793.81;;;13.94;100.00
7297;BME280;40758;54.038;11.684;2022-09-09T05:10:15;100792.09;;;13.93;100.00
7297;BME280;40758;54.038;11.684;2022-09-09T05:12:52;100797.91;;;13.98;100.00
7297;BME280;40758;54.038;11.684;2022-09-09T05:15:21;100795.47;;;13.95;100.00
7297;BME280;40758;54.038;11.684;2022-09-09T05:17:50;100790.66;;;13.89;100.00
7297;BME280;40758;54.038;11.684;2022-09-09T05:20:22;100794.06;;;13.91;100.00
7297;BME280;40758;54.038;11.684;2022-09-09T05:22:53;100792.09;;;13.93;100.00
7297;BME280;40758;54.038;11.684;2022-09-09T05:25:30;100791.50;;;13.99;100.00
7297;BME280;40758;54.038;11.684;2022-09-09T05:27:59;100790.94;;;13.96;100.00
7297;BME280;40758;54.038;11.684;2022-09-09T05:30:27;100791.38;;;14.01;100.00
7297;BME280;40758;54.038;11.684;2022-09-09T05:32:58;100791.50;;;13.99;100.00
7297;BME280;40758;54.038;11.684;2022-09-09T05:35:28;100786.38;;;13.96;100.00
7297;BME280;40758;54.038;11.684;2022-09-09T05:37:59;100777.81;;;14.10;100.00
7297;BME280;40758;54.038;11.684;2022-09-09T05:40:32;100788.00;;;14.16;100.00
7297;BME280;40758;54.038;11.684;2022-09-09T05:43:05;100793.09;;;14.19;100.00
7297;BME280;40758;54.038;11.684;2022-09-09T05:45:34;100786.41;;;14.24;100.00
7297;BME280;40758;54.038;11.684;2022-09-09T05:48:03;100790.63;;;14.36;100.00
7297;BME280;40758;54.038;11.684;2022-09-09T05:50:35;100787.69;;;14.19;100.00
7297;BME280;40758;54.038;11.684;2022-09-09T05:53:04;100792.47;;;14.35;100.00
7297;BME280;40758;54.038;11.684;2022-09-09T05:55:33;100790.75;;;14.44;100.00
7297;BME280;40758;54.038;11.684;2022-09-09T05:58:05;100789.44;;;14.48;100.00
7297;BME280;40758;54.038;11.684;2022-09-09T06:00:33;100789.00;;;14.52;100.00
7297;BME280;40758;54.038;11.684;2022-09-09T06:03:03;100786.44;;;14.51;100.00
7297;BME280;40758;54.038;11.684;2022-09-09T06:05:34;100789.94;;;14.61;100.00
7297;BME280;40758;54.038;11.684;2022-09-09T06:08:03;100793.13;;;14.74;100.00
7297;BME280;40758;54.038;11.684;2022-09-09T06:10:32;100784.47;;;14.88;100.00
7297;BME280;40758;54.038;11.684;2022-09-09T06:13:01;100789.69;;;15.00;100.00
7297;BME280;40758;54.038;11.684;2022-09-09T06:15:29;100788.97;;;14.97;100.00
7297;BME280;40758;54.038;11.684;2022-09-09T06:17:59;100786.25;;;14.97;100.00
7297;BME280;40758;54.038;11.684;2022-09-09T06:20:28;100780.75;;;14.89;100.00
7297;BME280;40758;54.038;11.684;2022-09-09T06:23:00;100783.47;;;14.72;100.00
7297;BME280;40758;54.038;11.684;2022-09-09T06:25:28;100782.00;;;14.77;100.00
7297;BME280;40758;54.038;11.684;2022-09-09T06:27:58;100776.59;;;14.77;100.00
7297;BME280;40758;54.038;11.684;2022-09-09T06:30:28;100782.09;;;14.85;100.00
7297;BME280;40758;54.038;11.684;2022-09-09T06:32:57;100776.53;;;14.87;100.00
7297;BME280;40758;54.038;11.684;2022-09-09T06:35:27;100768.88;;;15.18;100.00
7297;BME280;40758;54.038;11.684;2022-09-09T06:37:56;100774.78;;;15.39;100.00
7297;BME280;40758;54.038;11.684;2022-09-09T06:40:27;100766.03;;;15.45;100.00
7297;BME280;40758;54.038;11.684;2022-09-09T06:42:59;100759.13;;;15.51;100.00
7297;BME280;40758;54.038;11.684;2022-09-09T06:45:30;100747.78;;;15.47;100.00
7297;BME280;40758;54.038;11.684;2022-09-09T06:47:59;100752.00;;;15.67;100.00
7297;BME280;40758;54.038;11.684;2022-09-09T06:50:28;100755.88;;;15.91;100.00
7297;BME280;40758;54.038;11.684;2022-09-09T06:52:57;100743.88;;;15.67;100.00
7297;BME280;40758;54.038;11.684;2022-09-09T06:55:28;100750.53;;;15.73;100.00
7297;BME280;40758;54.038;11.684;2022-09-09T06:57:58;100752.59;;;15.79;100.00
7297;BME280;40758;54.038;11.684;2022-09-09T07:00:27;100751.22;;;16.17;100.00
7297;BME280;40758;54.038;11.684;2022-09-09T07:05:15;100736.69;;;16.68;100.00
7297;BME280;40758;54.038;11.684;2022-09-09T07:07:45;100728.91;;;16.89;100.00
7297;BME280;40758;54.038;11.684;2022-09-09T07:10:14;100728.06;;;17.05;100.00
7297;BME280;40758;54.038;11.684;2022-09-09T07:12:42;100729.72;;;17.47;100.00
7297;BME280;40758;54.038;11.684;2022-09-09T07:15:12;100718.69;;;17.48;100.00
7297;BME280;40758;54.038;11.684;2022-09-09T07:17:41;100715.84;;;17.33;100.00
7297;BME280;40758;54.038;11.684;2022-09-09T07:20:10;100714.34;;;17.15;100.00
7297;BME280;40758;54.038;11.684;2022-09-09T07:22:40;100702.28;;;16.85;100.00
7297;BME280;40758;54.038;11.684;2022-09-09T07:25:09;100706.19;;;16.82;100.00
7297;BME280;40758;54.038;11.684;2022-09-09T07:27:38;100692.44;;;16.76;100.00
7297;BME280;40758;54.038;11.684;2022-09-09T07:30:10;100703.66;;;16.89;100.00
7297;BME280;40758;54.038;11.684;2022-09-09T07:32:47;100685.66;;;16.88;100.00
7297;BME280;40758;54.038;11.684;2022-09-09T07:35:16;100684.66;;;17.13;100.00
7297;BME280;40758;54.038;11.684;2022-09-09T07:37:46;100690.34;;;16.53;100.00
7297;BME280;40758;54.038;11.684;2022-09-09T07:40:17;100694.81;;;16.71;100.00
7297;BME280;40758;54.038;11.684;2022-09-09T07:42:49;100699.56;;;16.93;100.00
7297;BME280;40758;54.038;11.684;2022-09-09T07:45:18;100700.75;;;17.07;100.00
7297;BME280;40758;54.038;11.684;2022-09-09T07:47:46;100708.06;;;17.06;100.00
7297;BME280;40758;54.038;11.684;2022-09-09T07:50:17;100697.69;;;17.26;100.00
7297;BME280;40758;54.038;11.684;2022-09-09T07:52:54;100706.31;;;18.09;100.00
7297;BME280;40758;54.038;11.684;2022-09-09T07:55:27;100698.53;;;18.90;100.00
7297;BME280;40758;54.038;11.684;2022-09-09T07:57:59;100688.75;;;19.04;100.00
7297;BME280;40758;54.038;11.684;2022-09-09T08:00:29;100684.19;;;19.34;100.00
7297;BME280;40758;54.038;11.684;2022-09-09T08:03:03;100685.19;;;20.00;100.00
7297;BME280;40758;54.038;11.684;2022-09-09T08:05:35;100680.69;;;19.92;100.00
7297;BME280;40758;54.038;11.684;2022-09-09T08:08:13;100690.66;;;19.70;100.00
7297;BME280;40758;54.038;11.684;2022-09-09T08:10:50;100689.25;;;20.04;100.00
7297;BME280;40758;54.038;11.684;2022-09-09T08:13:21;100693.34;;;20.29;100.00
7297;BME280;40758;54.038;11.684;2022-09-09T08:15:51;100679.91;;;20.85;100.00
7297;BME280;40758;54.038;11.684;2022-09-09T08:18:28;100681.03;;;21.39;94.88
7297;BME280;40758;54.038;11.684;2022-09-09T08:21:06;100684.81;;;21.38;91.88
7297;BME280;40758;54.038;11.684;2022-09-09T08:23:41;100681.13;;;22.22;88.83
7297;BME280;40758;54.038;11.684;2022-09-09T08:26:17;100683.97;;;22.54;84.93
7297;BME280;40758;54.038;11.684;2022-09-09T08:28:51;100682.38;;;21.01;86.82
7297;BME280;40758;54.038;11.684;2022-09-09T08:31:22;100679.00;;;22.17;85.31
7297;BME280;40758;54.038;11.684;2022-09-09T08:33:51;100685.00;;;22.47;82.73
7297;BME280;40758;54.038;11.684;2022-09-09T08:36:23;100687.03;;;21.84;80.91
7297;BME280;40758;54.038;11.684;2022-09-09T08:38:56;100701.13;;;21.04;83.90
7297;BME280;40758;54.038;11.684;2022-09-09T08:41:58;100704.88;;;20.61;86.54
7297;BME280;40758;54.038;11.684;2022-09-09T08:44:49;100709.56;;;20.67;87.39
7297;BME280;40758;54.038;11.684;2022-09-09T08:47:31;100708.25;;;21.48;87.34
7297;BME280;40758;54.038;11.684;2022-09-09T08:50:18;100698.47;;;23.49;80.24
7297;BME280;40758;54.038;11.684;2022-09-09T08:52:57;100697.44;;;24.72;73.66
7297;BME280;40758;54.038;11.684;2022-09-09T08:55:40;100703.19;;;24.06;68.98
7297;BME280;40758;54.038;11.684;2022-09-09T08:58:14;100715.50;;;23.11;72.08
7297;BME280;40758;54.038;11.684;2022-09-09T09:01:03;100704.06;;;22.75;72.83
7297;BME280;40758;54.038;11.684;2022-09-09T09:05:24;100713.28;;;21.23;76.54
7297;BME280;40758;54.038;11.684;2022-09-09T09:08:12;100725.09;;;20.87;80.92
7297;BME280;40758;54.038;11.684;2022-09-09T09:10:48;100725.81;;;20.96;83.26
7297;BME280;40758;54.038;11.684;2022-09-09T09:13:21;100723.03;;;20.89;81.89
7297;BME280;40758;54.038;11.684;2022-09-09T09:16:02;100721.72;;;20.85;82.57
7297;BME280;40758;54.038;11.684;2022-09-09T09:18:35;100724.84;;;20.32;83.73
7297;BME280;40758;54.038;11.684;2022-09-09T09:21:15;100721.19;;;19.51;86.51
7297;BME280;40758;54.038;11.684;2022-09-09T09:23:56;100713.50;;;19.84;88.68
7297;BME280;40758;54.038;11.684;2022-09-09T09:26:31;100712.09;;;20.03;87.18
7297;BME280;40758;54.038;11.684;2022-09-09T09:29:10;100710.31;;;20.10;85.51
7297;BME280;40758;54.038;11.684;2022-09-09T09:31:46;100716.22;;;20.13;86.55
7297;BME280;40758;54.038;11.684;2022-09-09T09:34:17;100714.19;;;20.51;86.69
7297;BME280;40758;54.038;11.684;2022-09-09T09:36:55;100709.88;;;20.99;84.46
7297;BME280;40758;54.038;11.684;2022-09-09T09:39:27;100698.88;;;21.35;80.99
7297;BME280;40758;54.038;11.684;2022-09-09T09:42:18;100694.72;;;21.39;78.44
7297;BME280;40758;54.038;11.684;2022-09-09T09:44:50;100689.09;;;21.82;77.21
7297;BME280;40758;54.038;11.684;2022-09-09T09:47:22;100703.50;;;21.97;75.88
7297;BME280;40758;54.038;11.684;2022-09-09T09:49:55;100699.13;;;22.50;75.38
7297;BME280;40758;54.038;11.684;2022-09-09T09:52:29;100702.66;;;23.45;71.44
7297;BME280;40758;54.038;11.684;2022-09-09T09:55:04;100705.53;;;23.96;69.59
7297;BME280;40758;54.038;11.684;2022-09-09T09:57:41;100695.00;;;23.93;65.39
7297;BME280;40758;54.038;11.684;2022-09-09T10:00:20;100700.06;;;23.83;67.20
7297;BME280;40758;54.038;11.684;2022-09-09T10:03:54;100707.88;;;23.86;66.74
7297;BME280;40758;54.038;11.684;2022-09-09T10:06:32;100709.31;;;23.95;66.80
7297;BME280;40758;54.038;11.684;2022-09-09T10:09:21;100719.25;;;23.96;65.96
7297;BME280;40758;54.038;11.684;2022-09-09T10:12:26;100709.13;;;24.61;65.56
7297;BME280;40758;54.038;11.684;2022-09-09T10:15:10;100709.09;;;25.05;62.10
7297;BME280;40758;54.038;11.684;2022-09-09T10:17:57;100700.31;;;24.45;61.28
7297;BME280;40758;54.038;11.684;2022-09-09T10:20:40;100705.06;;;24.12;62.04
7297;BME280;40758;54.038;11.684;2022-09-09T10:23:29;100699.00;;;24.54;61.68
7297;BME280;40758;54.038;11.684;2022-09-09T10:26:29;100711.44;;;24.06;62.65
7297;BME280;40758;54.038;11.684;2022-09-09T10:29:38;100715.91;;;24.96;62.30
7297;BME280;40758;54.038;11.684;2022-09-09T10:32:35;100717.59;;;24.52;61.52
7297;BME280;40758;54.038;11.684;2022-09-09T10:35:14;100708.44;;;25.03;60.84
7297;BME280;40758;54.038;11.684;2022-09-09T10:38:17;100710.50;;;26.25;59.39
7297;BME280;40758;54.038;11.684;2022-09-09T10:41:11;100706.00;;;26.61;56.92
7297;BME280;40758;54.038;11.684;2022-09-09T10:44:17;100713.66;;;27.18;55.07
7297;BME280;40758;54.038;11.684;2022-09-09T10:47:13;100711.16;;;26.21;55.92
7297;BME280;40758;54.038;11.684;2022-09-09T10:50:12;100710.38;;;25.52;58.17
7297;BME280;40758;54.038;11.684;2022-09-09T10:52:55;100718.34;;;25.35;59.39
7297;BME280;40758;54.038;11.684;2022-09-09T10:55:31;100713.50;;;25.56;59.91
7297;BME280;40758;54.038;11.684;2022-09-09T10:58:08;100717.31;;;24.67;60.94
7297;BME280;40758;54.038;11.684;2022-09-09T11:00:43;100719.00;;;24.17;63.78
7297;BME280;40758;54.038;11.684;2022-09-09T11:05:19;100711.72;;;24.49;62.07
7297;BME280;40758;54.038;11.684;2022-09-09T11:07:56;100715.31;;;23.59;65.77
7297;BME280;40758;54.038;11.684;2022-09-09T11:10:36;100720.78;;;23.26;65.16
7297;BME280;40758;54.038;11.684;2022-09-09T11:13:18;100724.72;;;22.84;67.04
7297;BME280;40758;54.038;11.684;2022-09-09T11:15:59;100717.44;;;23.70;65.11
7297;BME280;40758;54.038;11.684;2022-09-09T11:18:36;100729.63;;;24.58;63.12
7297;BME280;40758;54.038;11.684;2022-09-09T11:21:17;100732.31;;;22.75;64.24
7297;BME280;40758;54.038;11.684;2022-09-09T11:23:55;100736.59;;;21.74;68.88
7297;BME280;40758;54.038;11.684;2022-09-09T11:26:33;100741.13;;;21.33;72.44
7297;BME280;40758;54.038;11.684;2022-09-09T11:32:27;100734.09;;;22.55;70.35
7297;BME280;40758;54.038;11.684;2022-09-09T11:35:19;100727.72;;;23.09;67.83
7297;BME280;40758;54.038;11.684;2022-09-09T11:38:15;100727.72;;;23.15;66.72
7297;BME280;40758;54.038;11.684;2022-09-09T11:40:45;100728.38;;;23.30;66.27
7297;BME280;40758;54.038;11.684;2022-09-09T11:43:24;100731.75;;;23.59;64.86
7297;BME280;40758;54.038;11.684;2022-09-09T11:45:57;100730.88;;;23.98;62.40
7297;BME280;40758;54.038;11.684;2022-09-09T11:48:33;100722.31;;;24.32;62.76
7297;BME280;40758;54.038;11.684;2022-09-09T11:51:07;100719.03;;;24.62;60.70
7297;BME280;40758;54.038;11.684;2022-09-09T11:53:54;100728.28;;;24.23;61.21
7297;BME280;40758;54.038;11.684;2022-09-09T11:56:29;100739.56;;;23.42;63.74
7297;BME280;40758;54.038;11.684;2022-09-09T11:59:05;100739.31;;;23.90;64.12
7297;BME280;40758;54.038;11.684;2022-09-09T12:01:39;100729.19;;;23.97;61.35
7297;BME280;40758;54.038;11.684;2022-09-09T12:04:37;100725.19;;;25.26;60.43
7297;BME280;40758;54.038;11.684;2022-09-09T12:07:34;100720.38;;;25.47;58.43
7297;BME280;40758;54.038;11.684;2022-09-09T12:10:26;100726.94;;;24.38;59.91
7297;BME280;40758;54.038;11.684;2022-09-09T12:13:08;100726.97;;;25.14;59.93
7297;BME280;40758;54.038;11.684;2022-09-09T12:15:49;100721.97;;;25.05;57.85
7297;BME280;40758;54.038;11.684;2022-09-09T12:18:24;100707.94;;;23.59;59.80
7297;BME280;40758;54.038;11.684;2022-09-09T12:21:05;100713.31;;;24.12;61.51
7297;BME280;40758;54.038;11.684;2022-09-09T12:23:47;100716.97;;;23.27;60.37
7297;BME280;40758;54.038;11.684;2022-09-09T12:26:32;100702.72;;;24.15;59.61
7297;BME280;40758;54.038;11.684;2022-09-09T12:29:23;100695.47;;;24.79;56.80
7297;BME280;40758;54.038;11.684;2022-09-09T12:32:02;100699.22;;;25.22;56.19
7297;BME280;40758;54.038;11.684;2022-09-09T12:34:40;100702.56;;;25.00;57.70
7297;BME280;40758;54.038;11.684;2022-09-09T12:37:28;100694.44;;;23.38;58.17
7297;BME280;40758;54.038;11.684;2022-09-09T12:40:02;100702.66;;;24.80;59.25
7297;BME280;40758;54.038;11.684;2022-09-09T12:42:33;100697.06;;;25.49;58.11
7297;BME280;40758;54.038;11.684;2022-09-09T12:45:17;100689.66;;;25.74;55.88
7297;BME280;40758;54.038;11.684;2022-09-09T12:47:55;100698.47;;;25.83;54.06
7297;BME280;40758;54.038;11.684;2022-09-09T12:50:30;100695.53;;;25.60;53.07
7297;BME280;40758;54.038;11.684;2022-09-09T12:53:07;100696.00;;;25.93;53.16
7297;BME280;40758;54.038;11.684;2022-09-09T12:55:39;100694.31;;;25.74;52.72
7297;BME280;40758;54.038;11.684;2022-09-09T12:58:20;100695.47;;;25.42;53.25
7297;BME280;40758;54.038;11.684;2022-09-09T13:00:51;100688.84;;;26.10;53.46
7297;BME280;40758;54.038;11.684;2022-09-09T13:05:21;100686.22;;;26.52;50.94
7297;BME280;40758;54.038;11.684;2022-09-09T13:08:01;100690.03;;;26.51;52.86
7297;BME280;40758;54.038;11.684;2022-09-09T13:10:35;100678.19;;;27.33;49.10
7297;BME280;40758;54.038;11.684;2022-09-09T13:13:29;100680.69;;;27.23;47.88
7297;BME280;40758;54.038;11.684;2022-09-09T13:16:03;100693.69;;;26.93;48.47
7297;BME280;40758;54.038;11.684;2022-09-09T13:18:37;100695.84;;;26.73;49.11
7297;BME280;40758;54.038;11.684;2022-09-09T13:21:10;100686.53;;;26.07;51.31
7297;BME280;40758;54.038;11.684;2022-09-09T13:23:39;100685.06;;;25.44;52.66
7297;BME280;40758;54.038;11.684;2022-09-09T13:26:23;100676.97;;;26.46;52.95
7297;BME280;40758;54.038;11.684;2022-09-09T13:28:54;100678.44;;;28.13;49.88
7297;BME280;40758;54.038;11.684;2022-09-09T13:31:28;100674.97;;;27.71;48.09
7297;BME280;40758;54.038;11.684;2022-09-09T13:33:57;100682.34;;;27.13;48.70
7297;BME280;40758;54.038;11.684;2022-09-09T13:36:33;100677.38;;;26.91;49.25
7297;BME280;40758;54.038;11.684;2022-09-09T13:39:04;100678.53;;;26.54;49.85
7297;BME280;40758;54.038;11.684;2022-09-09T13:41:36;100671.00;;;26.61;49.49
7297;BME280;40758;54.038;11.684;2022-09-09T13:44:06;100676.75;;;25.93;49.94
7297;BME280;40758;54.038;11.684;2022-09-09T13:46:37;100668.72;;;25.92;51.04